sensor_id;sensor_type;location;lat;lon;timestamp;P1;durP1;ratioP1;P2;durP2;ratioP2
70049;SDS011;57391;51.306;22.680;2022-11-20T00:01:33;30.40;;;12.80;;
70049;SDS011;57391;51.306;22.680;2022-11-20T00:04:00;31.50;;;14.40;;
70049;SDS011;57391;51.306;22.680;2022-11-20T00:06:30;26.90;;;11.70;;
70049;SDS011;57391;51.306;22.680;2022-11-20T00:08:59;29.60;;;12.30;;
70049;SDS011;57391;51.306;22.680;2022-11-20T00:11:29;25.00;;;10.80;;
70049;SDS011;57391;51.306;22.680;2022-11-20T00:13:59;28.40;;;11.70;;
70049;SDS011;57391;51.306;22.680;2022-11-20T00:16:30;27.30;;;12.20;;
70049;SDS011;57391;51.306;22.680;2022-11-20T00:18:59;28.90;;;11.60;;
70049;SDS011;57391;51.306;22.680;2022-11-20T00:21:28;29.70;;;10.70;;
70049;SDS011;57391;51.306;22.680;2022-11-20T00:23:57;25.80;;;11.40;;
70049;SDS011;57391;51.306;22.680;2022-11-20T00:26:26;33.50;;;14.10;;
70049;SDS011;57391;51.306;22.680;2022-11-20T00:28:57;24.30;;;9.70;;
70049;SDS011;57391;51.306;22.680;2022-11-20T00:31:28;30.80;;;11.60;;
70049;SDS011;57391;51.306;22.680;2022-11-20T00:33:56;30.10;;;11.00;;
70049;SDS011;57391;51.306;22.680;2022-11-20T00:36:26;32.50;;;12.70;;
70049;SDS011;57391;51.306;22.680;2022-11-20T00:38:58;27.10;;;10.30;;
70049;SDS011;57391;51.306;22.680;2022-11-20T00:41:27;27.10;;;11.80;;
70049;SDS011;57391;51.306;22.680;2022-11-20T00:43:56;28.90;;;12.00;;
70049;SDS011;57391;51.306;22.680;2022-11-20T00:46:25;25.30;;;10.20;;
70049;SDS011;57391;51.306;22.680;2022-11-20T00:48:53;27.80;;;10.50;;
70049;SDS011;57391;51.306;22.680;2022-11-20T00:51:23;24.80;;;9.50;;
70049;SDS011;57391;51.306;22.680;2022-11-20T00:53:51;27.10;;;10.10;;
70049;SDS011;57391;51.306;22.680;2022-11-20T00:56:19;33.80;;;13.70;;
70049;SDS011;57391;51.306;22.680;2022-11-20T00:58:48;26.30;;;10.90;;
70049;SDS011;57391;51.306;22.680;2022-11-20T01:01:20;33.00;;;14.40;;
70049;SDS011;57391;51.306;22.680;2022-11-20T01:03:53;28.90;;;12.00;;
70049;SDS011;57391;51.306;22.680;2022-11-20T01:06:33;31.40;;;11.50;;
70049;SDS011;57391;51.306;22.680;2022-11-20T01:09:06;33.80;;;14.40;;
70049;SDS011;57391;51.306;22.680;2022-11-20T01:11:37;35.20;;;14.60;;
70049;SDS011;57391;51.306;22.680;2022-11-20T01:14:15;42.70;;;15.40;;
70049;SDS011;57391;51.306;22.680;2022-11-20T01:16:47;34.00;;;13.90;;
70049;SDS011;57391;51.306;22.680;2022-11-20T01:19:25;31.30;;;12.60;;
70049;SDS011;57391;51.306;22.680;2022-11-20T01:21:53;32.50;;;11.90;;
70049;SDS011;57391;51.306;22.680;2022-11-20T01:24:22;33.40;;;13.90;;
70049;SDS011;57391;51.306;22.680;2022-11-20T01:26:50;39.70;;;15.20;;
70049;SDS011;57391;51.306;22.680;2022-11-20T01:29:24;40.70;;;16.70;;
70049;SDS011;57391;51.306;22.680;2022-11-20T01:31:52;38.80;;;15.30;;
70049;SDS011;57391;51.306;22.680;2022-11-20T01:34:20;30.10;;;13.80;;
70049;SDS011;57391;51.306;22.680;2022-11-20T01:36:49;43.80;;;16.70;;
70049;SDS011;57391;51.306;22.680;2022-11-20T01:39:20;40.00;;;15.50;;
70049;SDS011;57391;51.306;22.680;2022-11-20T01:41:51;33.60;;;13.70;;
70049;SDS011;57391;51.306;22.680;2022-11-20T01:44:53;35.70;;;15.10;;
70049;SDS011;57391;51.306;22.680;2022-11-20T01:47:34;36.20;;;13.50;;
70049;SDS011;57391;51.306;22.680;2022-11-20T01:50:24;36.80;;;13.90;;
70049;SDS011;57391;51.306;22.680;2022-11-20T01:52:59;33.40;;;13.80;;
70049;SDS011;57391;51.306;22.680;2022-11-20T01:55:33;39.90;;;16.40;;
70049;SDS011;57391;51.306;22.680;2022-11-20T01:58:03;36.20;;;15.20;;
70049;SDS011;57391;51.306;22.680;2022-11-20T02:00:31;37.80;;;15.90;;
70049;SDS011;57391;51.306;22.680;2022-11-20T02:03:05;35.90;;;14.10;;
70049;SDS011;57391;51.306;22.680;2022-11-20T02:05:37;40.60;;;15.10;;
70049;SDS011;57391;51.306;22.680;2022-11-20T02:08:08;30.80;;;11.70;;
70049;SDS011;57391;51.306;22.680;2022-11-20T02:10:35;34.00;;;13.10;;
70049;SDS011;57391;51.306;22.680;2022-11-20T02:13:03;29.40;;;10.80;;
70049;SDS011;57391;51.306;22.680;2022-11-20T02:15:49;32.30;;;12.80;;
70049;SDS011;57391;51.306;22.680;2022-11-20T02:18:19;36.60;;;13.80;;
70049;SDS011;57391;51.306;22.680;2022-11-20T02:20:54;33.10;;;13.80;;
70049;SDS011;57391;51.306;22.680;2022-11-20T02:26:39;25.00;;;11.10;;
70049;SDS011;57391;51.306;22.680;2022-11-20T02:29:11;33.80;;;14.00;;
70049;SDS011;57391;51.306;22.680;2022-11-20T02:31:41;36.40;;;14.50;;
70049;SDS011;57391;51.306;22.680;2022-11-20T02:34:09;37.30;;;15.40;;
70049;SDS011;57391;51.306;22.680;2022-11-20T02:36:39;30.20;;;12.60;;
70049;SDS011;57391;51.306;22.680;2022-11-20T02:39:11;36.40;;;15.50;;
70049;SDS011;57391;51.306;22.680;2022-11-20T02:41:40;30.70;;;13.70;;
70049;SDS011;57391;51.306;22.680;2022-11-20T02:44:07;33.10;;;12.70;;
70049;SDS011;57391;51.306;22.680;2022-11-20T02:46:34;27.40;;;10.90;;
70049;SDS011;57391;51.306;22.680;2022-11-20T02:49:02;25.40;;;10.70;;
70049;SDS011;57391;51.306;22.680;2022-11-20T02:51:32;21.20;;;9.20;;
70049;SDS011;57391;51.306;22.680;2022-11-20T02:53:59;30.70;;;12.30;;
70049;SDS011;57391;51.306;22.680;2022-11-20T02:56:26;28.40;;;12.00;;
70049;SDS011;57391;51.306;22.680;2022-11-20T02:58:54;26.60;;;11.00;;
70049;SDS011;57391;51.306;22.680;2022-11-20T03:01:21;21.40;;;9.50;;
70049;SDS011;57391;51.306;22.680;2022-11-20T03:03:49;26.00;;;10.20;;
70049;SDS011;57391;51.306;22.680;2022-11-20T03:06:16;21.00;;;9.10;;
70049;SDS011;57391;51.306;22.680;2022-11-20T03:08:43;28.00;;;12.10;;
70049;SDS011;57391;51.306;22.680;2022-11-20T03:11:11;27.50;;;12.50;;
70049;SDS011;57391;51.306;22.680;2022-11-20T03:13:38;25.00;;;11.70;;
70049;SDS011;57391;51.306;22.680;2022-11-20T03:16:12;23.40;;;9.80;;
70049;SDS011;57391;51.306;22.680;2022-11-20T03:18:41;23.80;;;10.60;;
70049;SDS011;57391;51.306;22.680;2022-11-20T03:21:10;24.60;;;11.20;;
70049;SDS011;57391;51.306;22.680;2022-11-20T03:23:40;20.20;;;8.80;;
70049;SDS011;57391;51.306;22.680;2022-11-20T03:26:09;22.20;;;8.60;;
70049;SDS011;57391;51.306;22.680;2022-11-20T03:28:46;17.70;;;8.00;;
70049;SDS011;57391;51.306;22.680;2022-11-20T03:31:19;24.40;;;9.80;;
70049;SDS011;57391;51.306;22.680;2022-11-20T03:33:52;24.00;;;10.70;;
70049;SDS011;57391;51.306;22.680;2022-11-20T03:36:20;17.40;;;8.30;;
70049;SDS011;57391;51.306;22.680;2022-11-20T03:38:47;20.50;;;9.10;;
70049;SDS011;57391;51.306;22.680;2022-11-20T03:41:17;20.10;;;8.20;;
70049;SDS011;57391;51.306;22.680;2022-11-20T03:43:53;20.70;;;9.30;;
70049;SDS011;57391;51.306;22.680;2022-11-20T03:46:21;20.40;;;9.40;;
70049;SDS011;57391;51.306;22.680;2022-11-20T03:48:48;23.20;;;9.50;;
70049;SDS011;57391;51.306;22.680;2022-11-20T03:51:26;22.40;;;10.90;;
70049;SDS011;57391;51.306;22.680;2022-11-20T03:54:01;19.70;;;9.50;;
70049;SDS011;57391;51.306;22.680;2022-11-20T03:56:33;22.90;;;10.20;;
70049;SDS011;57391;51.306;22.680;2022-11-20T03:59:02;22.80;;;10.90;;
70049;SDS011;57391;51.306;22.680;2022-11-20T04:01:35;25.40;;;11.20;;
70049;SDS011;57391;51.306;22.680;2022-11-20T04:04:05;26.50;;;12.60;;
70049;SDS011;57391;51.306;22.680;2022-11-20T04:06:36;25.50;;;11.60;;
70049;SDS011;57391;51.306;22.680;2022-11-20T04:09:05;23.90;;;10.30;;
70049;SDS011;57391;51.306;22.680;2022-11-20T04:11:35;24.30;;;11.90;;
70049;SDS011;57391;51.306;22.680;2022-11-20T04:14:05;24.00;;;10.80;;
70049;SDS011;57391;51.306;22.680;2022-11-20T04:16:38;20.70;;;9.40;;
70049;SDS011;57391;51.306;22.680;2022-11-20T04:19:10;25.90;;;11.10;;
70049;SDS011;57391;51.306;22.680;2022-11-20T04:21:38;21.90;;;9.50;;
70049;SDS011;57391;51.306;22.680;2022-11-20T04:24:07;21.90;;;10.00;;
70049;SDS011;57391;51.306;22.680;2022-11-20T04:26:34;25.60;;;11.60;;
70049;SDS011;57391;51.306;22.680;2022-11-20T04:29:02;20.00;;;8.90;;
70049;SDS011;57391;51.306;22.680;2022-11-20T04:31:32;20.10;;;9.40;;
70049;SDS011;57391;51.306;22.680;2022-11-20T04:34:02;16.90;;;7.80;;
70049;SDS011;57391;51.306;22.680;2022-11-20T04:36:32;20.20;;;8.90;;
70049;SDS011;57391;51.306;22.680;2022-11-20T04:39:01;24.50;;;9.40;;
70049;SDS011;57391;51.306;22.680;2022-11-20T04:41:32;25.50;;;11.90;;
70049;SDS011;57391;51.306;22.680;2022-11-20T04:44:02;17.70;;;7.90;;
70049;SDS011;57391;51.306;22.680;2022-11-20T04:46:33;19.50;;;8.90;;
70049;SDS011;57391;51.306;22.680;2022-11-20T04:49:06;18.70;;;7.90;;
70049;SDS011;57391;51.306;22.680;2022-11-20T04:51:34;22.70;;;9.40;;
70049;SDS011;57391;51.306;22.680;2022-11-20T04:54:02;23.60;;;9.00;;
70049;SDS011;57391;51.306;22.680;2022-11-20T04:56:30;18.50;;;8.20;;
70049;SDS011;57391;51.306;22.680;2022-11-20T04:59:00;23.20;;;10.40;;
70049;SDS011;57391;51.306;22.680;2022-11-20T05:01:28;23.50;;;10.50;;
70049;SDS011;57391;51.306;22.680;2022-11-20T05:03:55;24.00;;;10.90;;
70049;SDS011;57391;51.306;22.680;2022-11-20T05:06:22;22.20;;;10.10;;
70049;SDS011;57391;51.306;22.680;2022-11-20T05:08:50;23.50;;;10.40;;
70049;SDS011;57391;51.306;22.680;2022-11-20T05:11:19;26.40;;;11.70;;
70049;SDS011;57391;51.306;22.680;2022-11-20T05:13:48;23.30;;;11.50;;
70049;SDS011;57391;51.306;22.680;2022-11-20T05:16:19;27.90;;;10.40;;
70049;SDS011;57391;51.306;22.680;2022-11-20T05:18:48;26.50;;;10.50;;
70049;SDS011;57391;51.306;22.680;2022-11-20T05:21:17;27.00;;;10.90;;
70049;SDS011;57391;51.306;22.680;2022-11-20T05:23:45;28.20;;;11.10;;
70049;SDS011;57391;51.306;22.680;2022-11-20T05:26:15;27.30;;;10.90;;
70049;SDS011;57391;51.306;22.680;2022-11-20T05:28:48;18.40;;;7.90;;
70049;SDS011;57391;51.306;22.680;2022-11-20T05:31:19;22.10;;;9.50;;
70049;SDS011;57391;51.306;22.680;2022-11-20T05:33:47;18.60;;;7.90;;
70049;SDS011;57391;51.306;22.680;2022-11-20T05:36:15;23.10;;;8.80;;
70049;SDS011;57391;51.306;22.680;2022-11-20T05:38:44;21.50;;;9.80;;
70049;SDS011;57391;51.306;22.680;2022-11-20T05:41:13;21.50;;;10.00;;
70049;SDS011;57391;51.306;22.680;2022-11-20T05:43:44;18.20;;;8.00;;
70049;SDS011;57391;51.306;22.680;2022-11-20T05:46:14;21.00;;;9.20;;
70049;SDS011;57391;51.306;22.680;2022-11-20T05:48:43;17.90;;;7.90;;
70049;SDS011;57391;51.306;22.680;2022-11-20T05:51:14;22.10;;;9.80;;
70049;SDS011;57391;51.306;22.680;2022-11-20T05:53:43;20.00;;;9.50;;
70049;SDS011;57391;51.306;22.680;2022-11-20T05:56:13;21.00;;;9.30;;
70049;SDS011;57391;51.306;22.680;2022-11-20T05:58:45;18.40;;;7.90;;
70049;SDS011;57391;51.306;22.680;2022-11-20T06:01:19;22.40;;;8.50;;
70049;SDS011;57391;51.306;22.680;2022-11-20T06:03:49;23.80;;;10.40;;
70049;SDS011;57391;51.306;22.680;2022-11-20T06:06:18;23.00;;;9.10;;
70049;SDS011;57391;51.306;22.680;2022-11-20T06:08:46;27.50;;;11.00;;
70049;SDS011;57391;51.306;22.680;2022-11-20T06:11:15;23.10;;;9.30;;
70049;SDS011;57391;51.306;22.680;2022-11-20T06:13:44;20.90;;;8.70;;
70049;SDS011;57391;51.306;22.680;2022-11-20T06:16:13;19.70;;;8.70;;
70049;SDS011;57391;51.306;22.680;2022-11-20T06:18:43;16.90;;;7.10;;
70049;SDS011;57391;51.306;22.680;2022-11-20T06:21:13;20.30;;;8.40;;
70049;SDS011;57391;51.306;22.680;2022-11-20T06:23:43;17.50;;;7.20;;
70049;SDS011;57391;51.306;22.680;2022-11-20T06:26:15;17.40;;;7.50;;
70049;SDS011;57391;51.306;22.680;2022-11-20T06:28:46;18.70;;;8.10;;
70049;SDS011;57391;51.306;22.680;2022-11-20T06:31:14;19.10;;;6.60;;
70049;SDS011;57391;51.306;22.680;2022-11-20T06:33:44;19.10;;;8.10;;
70049;SDS011;57391;51.306;22.680;2022-11-20T06:36:13;22.60;;;10.10;;
70049;SDS011;57391;51.306;22.680;2022-11-20T06:38:42;21.70;;;9.60;;
70049;SDS011;57391;51.306;22.680;2022-11-20T06:41:12;19.40;;;9.20;;
70049;SDS011;57391;51.306;22.680;2022-11-20T06:43:43;22.10;;;9.80;;
70049;SDS011;57391;51.306;22.680;2022-11-20T06:46:13;18.70;;;8.60;;
70049;SDS011;57391;51.306;22.680;2022-11-20T06:48:41;21.30;;;9.60;;
70049;SDS011;57391;51.306;22.680;2022-11-20T06:51:09;20.70;;;9.20;;
70049;SDS011;57391;51.306;22.680;2022-11-20T06:53:36;22.30;;;10.10;;
70049;SDS011;57391;51.306;22.680;2022-11-20T06:56:05;23.20;;;11.50;;
70049;SDS011;57391;51.306;22.680;2022-11-20T06:58:37;22.40;;;9.70;;
70049;SDS011;57391;51.306;22.680;2022-11-20T07:01:06;22.90;;;10.90;;
70049;SDS011;57391;51.306;22.680;2022-11-20T07:03:36;26.60;;;11.50;;
70049;SDS011;57391;51.306;22.680;2022-11-20T07:06:04;32.10;;;12.50;;
70049;SDS011;57391;51.306;22.680;2022-11-20T07:08:34;21.00;;;9.70;;
70049;SDS011;57391;51.306;22.680;2022-11-20T07:11:11;24.50;;;10.60;;
70049;SDS011;57391;51.306;22.680;2022-11-20T07:13:39;22.80;;;10.20;;
70049;SDS011;57391;51.306;22.680;2022-11-20T07:16:07;23.30;;;10.90;;
70049;SDS011;57391;51.306;22.680;2022-11-20T07:18:38;27.50;;;12.20;;
70049;SDS011;57391;51.306;22.680;2022-11-20T07:21:10;24.60;;;11.30;;
70049;SDS011;57391;51.306;22.680;2022-11-20T07:23:41;18.70;;;8.00;;
70049;SDS011;57391;51.306;22.680;2022-11-20T07:26:18;17.20;;;8.10;;
70049;SDS011;57391;51.306;22.680;2022-11-20T07:28:56;17.90;;;8.00;;
70049;SDS011;57391;51.306;22.680;2022-11-20T07:31:23;21.70;;;9.40;;
70049;SDS011;57391;51.306;22.680;2022-11-20T07:33:51;29.00;;;12.20;;
70049;SDS011;57391;51.306;22.680;2022-11-20T07:36:17;20.90;;;8.80;;
70049;SDS011;57391;51.306;22.680;2022-11-20T07:38:45;25.80;;;12.00;;
70049;SDS011;57391;51.306;22.680;2022-11-20T07:41:13;20.90;;;9.60;;
70049;SDS011;57391;51.306;22.680;2022-11-20T07:43:40;28.70;;;13.70;;
70049;SDS011;57391;51.306;22.680;2022-11-20T07:46:07;26.80;;;12.60;;
70049;SDS011;57391;51.306;22.680;2022-11-20T07:48:34;26.50;;;12.50;;
70049;SDS011;57391;51.306;22.680;2022-11-20T07:51:02;21.30;;;8.40;;
70049;SDS011;57391;51.306;22.680;2022-11-20T07:53:29;24.00;;;10.40;;
70049;SDS011;57391;51.306;22.680;2022-11-20T07:56:00;18.80;;;8.10;;
70049;SDS011;57391;51.306;22.680;2022-11-20T07:58:29;15.90;;;6.70;;
70049;SDS011;57391;51.306;22.680;2022-11-20T08:00:57;22.40;;;8.60;;
70049;SDS011;57391;51.306;22.680;2022-11-20T08:03:24;27.00;;;9.90;;
70049;SDS011;57391;51.306;22.680;2022-11-20T08:05:51;19.90;;;8.10;;
70049;SDS011;57391;51.306;22.680;2022-11-20T08:08:19;21.30;;;9.40;;
70049;SDS011;57391;51.306;22.680;2022-11-20T08:10:49;14.70;;;6.70;;
70049;SDS011;57391;51.306;22.680;2022-11-20T08:13:19;15.10;;;7.00;;
70049;SDS011;57391;51.306;22.680;2022-11-20T08:16:05;19.90;;;8.70;;
70049;SDS011;57391;51.306;22.680;2022-11-20T08:18:32;16.60;;;7.00;;
70049;SDS011;57391;51.306;22.680;2022-11-20T08:21:04;17.90;;;7.60;;
70049;SDS011;57391;51.306;22.680;2022-11-20T08:23:32;21.40;;;9.50;;
70049;SDS011;57391;51.306;22.680;2022-11-20T08:26:00;20.70;;;9.90;;
70049;SDS011;57391;51.306;22.680;2022-11-20T08:28:27;20.10;;;9.50;;
70049;SDS011;57391;51.306;22.680;2022-11-20T08:30:59;22.50;;;9.40;;
70049;SDS011;57391;51.306;22.680;2022-11-20T08:33:30;17.40;;;7.60;;
70049;SDS011;57391;51.306;22.680;2022-11-20T08:36:00;22.70;;;9.90;;
70049;SDS011;57391;51.306;22.680;2022-11-20T08:38:31;21.60;;;8.80;;
70049;SDS011;57391;51.306;22.680;2022-11-20T08:41:00;22.00;;;9.90;;
70049;SDS011;57391;51.306;22.680;2022-11-20T08:43:48;18.00;;;8.00;;
70049;SDS011;57391;51.306;22.680;2022-11-20T08:46:15;21.40;;;10.00;;
70049;SDS011;57391;51.306;22.680;2022-11-20T08:48:44;16.60;;;7.00;;
70049;SDS011;57391;51.306;22.680;2022-11-20T08:51:12;16.10;;;7.00;;
70049;SDS011;57391;51.306;22.680;2022-11-20T08:53:40;13.70;;;5.70;;
70049;SDS011;57391;51.306;22.680;2022-11-20T08:56:08;17.70;;;8.30;;
70049;SDS011;57391;51.306;22.680;2022-11-20T08:58:37;14.00;;;5.90;;
70049;SDS011;57391;51.306;22.680;2022-11-20T09:01:05;17.10;;;6.80;;
70049;SDS011;57391;51.306;22.680;2022-11-20T09:03:32;23.10;;;10.20;;
70049;SDS011;57391;51.306;22.680;2022-11-20T09:06:01;26.20;;;12.00;;
70049;SDS011;57391;51.306;22.680;2022-11-20T09:08:30;14.00;;;5.10;;
70049;SDS011;57391;51.306;22.680;2022-11-20T09:10:58;20.20;;;7.60;;
70049;SDS011;57391;51.306;22.680;2022-11-20T09:13:27;17.10;;;7.80;;
70049;SDS011;57391;51.306;22.680;2022-11-20T09:16:04;20.50;;;7.50;;
70049;SDS011;57391;51.306;22.680;2022-11-20T09:18:35;19.20;;;7.80;;
70049;SDS011;57391;51.306;22.680;2022-11-20T09:21:06;17.30;;;6.30;;
70049;SDS011;57391;51.306;22.680;2022-11-20T09:23:38;20.50;;;9.90;;
70049;SDS011;57391;51.306;22.680;2022-11-20T09:26:12;17.20;;;7.10;;
70049;SDS011;57391;51.306;22.680;2022-11-20T09:28:40;15.70;;;7.00;;
70049;SDS011;57391;51.306;22.680;2022-11-20T09:31:09;16.10;;;6.70;;
70049;SDS011;57391;51.306;22.680;2022-11-20T09:33:49;23.00;;;10.00;;
70049;SDS011;57391;51.306;22.680;2022-11-20T09:36:18;17.40;;;7.60;;
70049;SDS011;57391;51.306;22.680;2022-11-20T09:38:48;21.20;;;8.80;;
70049;SDS011;57391;51.306;22.680;2022-11-20T09:41:29;19.40;;;9.20;;
70049;SDS011;57391;51.306;22.680;2022-11-20T09:44:32;21.90;;;9.20;;
70049;SDS011;57391;51.306;22.680;2022-11-20T09:47:14;23.60;;;10.00;;
70049;SDS011;57391;51.306;22.680;2022-11-20T09:55:25;15.80;;;6.60;;
70049;SDS011;57391;51.306;22.680;2022-11-20T09:57:56;23.30;;;9.20;;
70049;SDS011;57391;51.306;22.680;2022-11-20T10:00:27;17.00;;;6.20;;
70049;SDS011;57391;51.306;22.680;2022-11-20T10:05:42;26.80;;;9.90;;
70049;SDS011;57391;51.306;22.680;2022-11-20T10:08:24;21.70;;;9.00;;
70049;SDS011;57391;51.306;22.680;2022-11-20T10:11:18;25.00;;;10.00;;
70049;SDS011;57391;51.306;22.680;2022-11-20T10:14:13;28.00;;;11.80;;
70049;SDS011;57391;51.306;22.680;2022-11-20T10:20:07;21.50;;;9.20;;
70049;SDS011;57391;51.306;22.680;2022-11-20T10:26:16;21.30;;;8.70;;
70049;SDS011;57391;51.306;22.680;2022-11-20T10:29:11;25.30;;;9.90;;
70049;SDS011;57391;51.306;22.680;2022-11-20T10:31:54;25.40;;;11.00;;
70049;SDS011;57391;51.306;22.680;2022-11-20T10:34:33;20.40;;;8.90;;
70049;SDS011;57391;51.306;22.680;2022-11-20T10:37:14;31.70;;;12.10;;
70049;SDS011;57391;51.306;22.680;2022-11-20T10:42:37;19.70;;;7.20;;
70049;SDS011;57391;51.306;22.680;2022-11-20T10:48:08;23.00;;;9.50;;
70049;SDS011;57391;51.306;22.680;2022-11-20T10:50:53;28.40;;;11.90;;
70049;SDS011;57391;51.306;22.680;2022-11-20T10:56:45;18.90;;;8.10;;
70049;SDS011;57391;51.306;22.680;2022-11-20T10:59:32;19.20;;;8.30;;
70049;SDS011;57391;51.306;22.680;2022-11-20T11:02:37;23.50;;;9.50;;
70049;SDS011;57391;51.306;22.680;2022-11-20T11:05:16;21.80;;;9.40;;
70049;SDS011;57391;51.306;22.680;2022-11-20T11:07:53;20.10;;;7.90;;
70049;SDS011;57391;51.306;22.680;2022-11-20T11:10:39;18.70;;;8.90;;
70049;SDS011;57391;51.306;22.680;2022-11-20T11:13:20;19.10;;;7.80;;
70049;SDS011;57391;51.306;22.680;2022-11-20T11:15:50;28.40;;;11.50;;
70049;SDS011;57391;51.306;22.680;2022-11-20T11:18:27;17.10;;;7.10;;
70049;SDS011;57391;51.306;22.680;2022-11-20T11:21:00;22.70;;;10.00;;
70049;SDS011;57391;51.306;22.680;2022-11-20T11:23:38;29.50;;;11.60;;
70049;SDS011;57391;51.306;22.680;2022-11-20T11:26:22;22.90;;;10.20;;
70049;SDS011;57391;51.306;22.680;2022-11-20T11:29:01;21.00;;;9.70;;
70049;SDS011;57391;51.306;22.680;2022-11-20T11:31:34;20.40;;;8.60;;
70049;SDS011;57391;51.306;22.680;2022-11-20T11:34:07;24.70;;;10.50;;
70049;SDS011;57391;51.306;22.680;2022-11-20T11:36:38;27.00;;;11.00;;
70049;SDS011;57391;51.306;22.680;2022-11-20T11:39:16;27.60;;;11.50;;
70049;SDS011;57391;51.306;22.680;2022-11-20T11:41:47;18.80;;;8.50;;
70049;SDS011;57391;51.306;22.680;2022-11-20T11:44:25;23.10;;;9.90;;
70049;SDS011;57391;51.306;22.680;2022-11-20T11:50:17;24.60;;;9.70;;
70049;SDS011;57391;51.306;22.680;2022-11-20T11:53:09;23.80;;;8.30;;
70049;SDS011;57391;51.306;22.680;2022-11-20T12:07:34;25.20;;;11.20;;
70049;SDS011;57391;51.306;22.680;2022-11-20T12:10:14;21.70;;;9.80;;
70049;SDS011;57391;51.306;22.680;2022-11-20T12:12:55;15.00;;;7.30;;
70049;SDS011;57391;51.306;22.680;2022-11-20T12:15:31;19.80;;;8.40;;
70049;SDS011;57391;51.306;22.680;2022-11-20T12:18:01;16.50;;;7.40;;
70049;SDS011;57391;51.306;22.680;2022-11-20T12:20:34;13.90;;;6.10;;
70049;SDS011;57391;51.306;22.680;2022-11-20T12:23:21;21.40;;;8.20;;
70049;SDS011;57391;51.306;22.680;2022-11-20T12:26:01;18.90;;;8.00;;
70049;SDS011;57391;51.306;22.680;2022-11-20T12:59:55;26.80;;;12.40;;
70049;SDS011;57391;51.306;22.680;2022-11-20T13:08:00;26.40;;;10.50;;
70049;SDS011;57391;51.306;22.680;2022-11-20T13:10:39;26.10;;;10.80;;
70049;SDS011;57391;51.306;22.680;2022-11-20T13:13:24;26.90;;;11.10;;
70049;SDS011;57391;51.306;22.680;2022-11-20T13:16:16;23.70;;;10.30;;
70049;SDS011;57391;51.306;22.680;2022-11-20T13:18:48;27.90;;;11.90;;
70049;SDS011;57391;51.306;22.680;2022-11-20T13:21:20;23.10;;;10.30;;
70049;SDS011;57391;51.306;22.680;2022-11-20T13:23:49;21.70;;;8.00;;
70049;SDS011;57391;51.306;22.680;2022-11-20T13:26:22;27.20;;;11.70;;
70049;SDS011;57391;51.306;22.680;2022-11-20T13:29:15;22.70;;;10.60;;
70049;SDS011;57391;51.306;22.680;2022-11-20T13:31:48;29.80;;;12.30;;
70049;SDS011;57391;51.306;22.680;2022-11-20T13:34:27;29.30;;;13.60;;
70049;SDS011;57391;51.306;22.680;2022-11-20T13:36:57;34.20;;;13.80;;
70049;SDS011;57391;51.306;22.680;2022-11-20T13:39:32;29.00;;;11.90;;
70049;SDS011;57391;51.306;22.680;2022-11-20T13:42:23;27.00;;;11.50;;
70049;SDS011;57391;51.306;22.680;2022-11-20T13:44:55;26.90;;;11.50;;
70049;SDS011;57391;51.306;22.680;2022-11-20T13:47:29;26.90;;;11.60;;
70049;SDS011;57391;51.306;22.680;2022-11-20T13:49:58;32.00;;;13.60;;
70049;SDS011;57391;51.306;22.680;2022-11-20T13:52:39;25.00;;;11.70;;
70049;SDS011;57391;51.306;22.680;2022-11-20T13:55:40;27.60;;;11.70;;
70049;SDS011;57391;51.306;22.680;2022-11-20T14:01:20;21.30;;;9.20;;
70049;SDS011;57391;51.306;22.680;2022-11-20T14:03:53;29.10;;;11.80;;
70049;SDS011;57391;51.306;22.680;2022-11-20T14:06:30;26.30;;;11.80;;
70049;SDS011;57391;51.306;22.680;2022-11-20T14:09:01;32.70;;;13.60;;
70049;SDS011;57391;51.306;22.680;2022-11-20T14:11:29;28.20;;;12.20;;
70049;SDS011;57391;51.306;22.680;2022-11-20T14:16:44;25.60;;;11.00;;
70049;SDS011;57391;51.306;22.680;2022-11-20T14:19:27;27.40;;;11.50;;
70049;SDS011;57391;51.306;22.680;2022-11-20T14:24:48;28.40;;;11.40;;
70049;SDS011;57391;51.306;22.680;2022-11-20T14:27:27;29.90;;;12.30;;
70049;SDS011;57391;51.306;22.680;2022-11-20T14:29:54;28.40;;;11.50;;
70049;SDS011;57391;51.306;22.680;2022-11-20T14:32:27;31.20;;;13.10;;
70049;SDS011;57391;51.306;22.680;2022-11-20T14:35:06;28.70;;;13.10;;
70049;SDS011;57391;51.306;22.680;2022-11-20T14:37:39;33.30;;;13.50;;
70049;SDS011;57391;51.306;22.680;2022-11-20T14:40:24;32.70;;;14.20;;
70049;SDS011;57391;51.306;22.680;2022-11-20T14:42:57;34.00;;;14.20;;
70049;SDS011;57391;51.306;22.680;2022-11-20T14:45:25;32.50;;;13.30;;
70049;SDS011;57391;51.306;22.680;2022-11-20T14:47:55;32.50;;;14.60;;
70049;SDS011;57391;51.306;22.680;2022-11-20T14:50:28;36.00;;;15.00;;
70049;SDS011;57391;51.306;22.680;2022-11-20T14:53:00;41.40;;;18.00;;
70049;SDS011;57391;51.306;22.680;2022-11-20T14:55:38;38.90;;;16.70;;
70049;SDS011;57391;51.306;22.680;2022-11-20T14:58:28;46.80;;;17.40;;
70049;SDS011;57391;51.306;22.680;2022-11-20T15:01:04;36.40;;;15.40;;
70049;SDS011;57391;51.306;22.680;2022-11-20T15:06:11;40.20;;;15.30;;
70049;SDS011;57391;51.306;22.680;2022-11-20T15:08:50;37.90;;;15.70;;
70049;SDS011;57391;51.306;22.680;2022-11-20T15:11:33;30.90;;;12.90;;
70049;SDS011;57391;51.306;22.680;2022-11-20T15:14:04;26.90;;;11.90;;
70049;SDS011;57391;51.306;22.680;2022-11-20T15:16:33;28.70;;;12.70;;
70049;SDS011;57391;51.306;22.680;2022-11-20T15:19:17;32.80;;;13.60;;
70049;SDS011;57391;51.306;22.680;2022-11-20T15:21:49;31.80;;;14.30;;
70049;SDS011;57391;51.306;22.680;2022-11-20T15:24:18;34.50;;;14.80;;
70049;SDS011;57391;51.306;22.680;2022-11-20T15:26:45;35.20;;;15.40;;
70049;SDS011;57391;51.306;22.680;2022-11-20T15:29:15;39.10;;;15.50;;
70049;SDS011;57391;51.306;22.680;2022-11-20T15:31:45;39.70;;;15.60;;
70049;SDS011;57391;51.306;22.680;2022-11-20T15:34:15;32.80;;;14.20;;
70049;SDS011;57391;51.306;22.680;2022-11-20T15:36:44;36.80;;;13.80;;
70049;SDS011;57391;51.306;22.680;2022-11-20T15:39:12;32.00;;;12.10;;
70049;SDS011;57391;51.306;22.680;2022-11-20T15:41:40;34.00;;;12.40;;
70049;SDS011;57391;51.306;22.680;2022-11-20T15:44:07;32.10;;;13.50;;
70049;SDS011;57391;51.306;22.680;2022-11-20T15:46:37;38.30;;;14.10;;
70049;SDS011;57391;51.306;22.680;2022-11-20T15:49:12;35.90;;;14.20;;
70049;SDS011;57391;51.306;22.680;2022-11-20T15:51:51;24.90;;;10.00;;
70049;SDS011;57391;51.306;22.680;2022-11-20T15:54:21;25.50;;;9.90;;
70049;SDS011;57391;51.306;22.680;2022-11-20T15:56:50;25.70;;;11.30;;
70049;SDS011;57391;51.306;22.680;2022-11-20T15:59:20;23.90;;;10.00;;
70049;SDS011;57391;51.306;22.680;2022-11-20T16:01:51;27.30;;;11.40;;
70049;SDS011;57391;51.306;22.680;2022-11-20T16:04:18;29.70;;;11.20;;
70049;SDS011;57391;51.306;22.680;2022-11-20T16:06:46;34.70;;;13.70;;
70049;SDS011;57391;51.306;22.680;2022-11-20T16:09:16;29.20;;;12.40;;
70049;SDS011;57391;51.306;22.680;2022-11-20T16:11:43;29.70;;;11.90;;
70049;SDS011;57391;51.306;22.680;2022-11-20T16:14:27;26.20;;;11.00;;